createdAt,value
2022-11-05T00:00:30.721Z,8.85
2022-11-05T00:05:47.933Z,8.78
2022-11-05T00:10:53.006Z,8.87
2022-11-05T00:16:12.939Z,8.85
2022-11-05T00:21:29.919Z,8.96
2022-11-05T00:26:34.683Z,8.96
2022-11-05T00:31:42.116Z,8.82
2022-11-05T00:36:46.898Z,9.03
2022-11-05T00:42:11.990Z,8.94
2022-11-05T00:47:31.782Z,8.86
2022-11-05T00:52:49.160Z,8.87
2022-11-05T00:57:54.350Z,8.87
2022-11-05T01:03:07.421Z,8.79
2022-11-05T01:08:12.754Z,8.82
2022-11-05T01:13:20.711Z,8.89
2022-11-05T01:18:28.340Z,8.84
2022-11-05T01:23:33.203Z,8.82
2022-11-05T01:28:38.810Z,9.11
2022-11-05T01:33:46.361Z,8.82
2022-11-05T01:38:51.258Z,8.88
2022-11-05T01:43:59.351Z,8.94
2022-11-05T01:49:13.529Z,8.94
2022-11-05T01:54:21.725Z,9.03
2022-11-05T01:59:32.217Z,8.83
2022-11-05T02:16:12.381Z,8.75
2022-11-05T02:21:46.887Z,8.81
2022-11-05T02:27:12.401Z,8.82
2022-11-05T02:32:32.907Z,8.74
2022-11-05T02:37:42.992Z,8.85
2022-11-05T02:42:59.128Z,8.83
2022-11-05T02:48:16.546Z,8.92
2022-11-05T02:53:27.447Z,8.96
2022-11-05T02:58:32.600Z,8.86
2022-11-05T03:03:47.102Z,8.81
2022-11-05T03:09:15.718Z,9.00
2022-11-05T03:14:27.161Z,8.79
2022-11-05T03:19:42.581Z,8.87
2022-11-05T03:24:52.241Z,8.85
2022-11-05T03:30:03.711Z,8.84
2022-11-05T03:35:17.571Z,8.74
2022-11-05T03:40:25.227Z,8.76
2022-11-05T03:45:34.668Z,8.85
2022-11-05T03:50:49.307Z,8.84
2022-11-05T03:56:00.258Z,8.92
2022-11-05T04:01:06.487Z,9.08
2022-11-05T04:06:26.576Z,8.85
2022-11-05T04:11:43.762Z,8.95
2022-11-05T04:17:01.022Z,8.96
2022-11-05T04:22:20.779Z,8.92
2022-11-05T04:27:25.801Z,9.01
2022-11-05T04:32:30.576Z,8.96
2022-11-05T04:37:39.203Z,8.89
2022-11-05T04:42:44.067Z,8.94
2022-11-05T04:47:48.930Z,8.85
2022-11-05T04:52:56.279Z,8.86
2022-11-05T04:58:01.063Z,8.92
2022-11-05T05:03:06.083Z,9.15
2022-11-05T05:08:13.509Z,9.15
2022-11-05T05:13:18.258Z,9.20
2022-11-05T05:18:25.483Z,9.25
2022-11-05T05:23:32.883Z,9.10
2022-11-05T05:28:37.828Z,9.17
2022-11-05T05:33:42.630Z,8.99
2022-11-05T05:38:50.346Z,8.96
2022-11-05T05:43:55.231Z,9.10
2022-11-05T05:49:00.679Z,8.92
2022-11-05T05:54:09.160Z,8.85
2022-11-05T05:59:14.811Z,8.80
2022-11-05T06:04:21.395Z,8.80
2022-11-05T06:09:29.133Z,8.87
2022-11-05T06:14:34.909Z,9.07
2022-11-05T06:19:43.206Z,8.97
2022-11-05T06:24:51.270Z,9.11
2022-11-05T06:29:58.551Z,8.93
2022-11-05T06:35:04.319Z,8.92
2022-11-05T06:40:13.651Z,9.01
2022-11-05T06:45:20.557Z,8.95
2022-11-05T06:50:25.799Z,8.98
2022-11-05T06:55:35.972Z,8.84
2022-11-05T07:00:40.866Z,8.99
2022-11-05T07:05:50.881Z,8.95
2022-11-05T07:10:58.296Z,8.94
2022-11-05T07:16:03.057Z,8.80
2022-11-05T07:21:08.002Z,9.03
2022-11-05T07:26:15.394Z,8.85
2022-11-05T07:31:20.357Z,8.92
2022-11-05T07:36:25.176Z,9.14
2022-11-05T07:41:33.149Z,8.95
2022-11-05T07:46:37.968Z,8.98
2022-11-05T07:51:42.793Z,9.10
2022-11-05T07:56:52.229Z,9.16
2022-11-05T08:01:57.096Z,8.99
2022-11-05T08:07:02.044Z,8.96
2022-11-05T08:12:13.312Z,9.09
2022-11-05T08:17:18.605Z,9.16
2022-11-05T08:22:23.611Z,9.14
2022-11-05T08:27:31.062Z,9.24
2022-11-05T08:32:36.053Z,9.15
2022-11-05T08:37:43.861Z,9.17
2022-11-05T08:42:51.450Z,9.11
2022-11-05T08:48:02.319Z,9.48
2022-11-05T08:53:07.692Z,9.73
2022-11-05T08:58:17.791Z,9.78
2022-11-05T09:03:22.990Z,9.46
2022-11-05T09:08:27.953Z,9.57
2022-11-05T09:13:35.674Z,9.47
2022-11-05T09:18:42.477Z,9.31
2022-11-05T09:23:47.796Z,9.34
2022-11-05T09:28:55.876Z,9.57
2022-11-05T09:34:01.114Z,9.81
2022-11-05T09:39:06.226Z,9.77
2022-11-05T09:44:19.985Z,10.35
2022-11-05T09:49:29.870Z,10.13
2022-11-05T09:54:37.110Z,10.13
2022-11-05T09:59:48.762Z,10.30
2022-11-05T10:05:00.671Z,10.44
2022-11-05T10:10:12.688Z,10.19
2022-11-05T10:15:26.336Z,10.26
2022-11-05T10:20:35.921Z,10.80
2022-11-05T10:25:44.009Z,11.12
2022-11-05T10:30:54.391Z,10.99
2022-11-05T10:36:05.795Z,11.08
2022-11-05T10:41:31.757Z,10.69
2022-11-05T10:46:45.246Z,10.76
2022-11-05T10:51:58.551Z,11.72
2022-11-05T10:57:03.480Z,12.83
2022-11-05T11:02:24.731Z,11.96
2022-11-05T11:07:30.436Z,12.18
2022-11-05T11:12:41.539Z,12.01
2022-11-05T11:17:49.780Z,12.02
2022-11-05T11:23:16.656Z,12.30
2022-11-05T11:28:30.709Z,11.86
2022-11-05T11:33:41.273Z,12.07
2022-11-05T11:38:52.387Z,11.76
2022-11-05T11:43:59.936Z,11.80
2022-11-05T11:49:10.344Z,11.50
2022-11-05T11:54:29.084Z,11.68
2022-11-05T12:00:06.677Z,11.26
2022-11-05T12:05:21.814Z,11.05
2022-11-05T12:10:49.392Z,11.56
2022-11-05T12:15:57.035Z,12.14
2022-11-05T12:21:40.754Z,13.04
2022-11-05T12:26:57.256Z,12.20
2022-11-05T12:32:26.327Z,11.71
2022-11-05T12:37:40.314Z,11.38
2022-11-05T12:42:59.548Z,11.26
2022-11-05T12:48:21.976Z,11.69
2022-11-05T12:53:46.341Z,11.63
2022-11-05T12:58:56.790Z,12.39
2022-11-05T13:04:08.108Z,12.38
2022-11-05T13:09:21.432Z,12.61
2022-11-05T13:14:31.352Z,12.00
2022-11-05T13:19:43.239Z,12.76
2022-11-05T13:24:52.749Z,12.74
2022-11-05T13:30:02.593Z,12.99
2022-11-05T13:35:16.772Z,12.79
2022-11-05T13:40:35.424Z,12.49
2022-11-05T13:46:22.367Z,12.42
2022-11-05T13:51:49.243Z,12.13
2022-11-05T13:57:14.328Z,12.29
2022-11-05T14:02:23.078Z,12.38
2022-11-05T14:07:31.175Z,12.29
2022-11-05T14:12:41.566Z,12.53
2022-11-05T14:18:02.331Z,12.04
2022-11-05T14:23:45.556Z,11.58
2022-11-05T14:29:15.499Z,11.56
2022-11-05T14:34:24.819Z,11.37
2022-11-05T14:39:31.864Z,11.30
2022-11-05T14:44:39.577Z,11.45
2022-11-05T14:49:54.616Z,11.71
2022-11-05T14:55:01.217Z,11.68
2022-11-05T15:00:33.833Z,11.44
2022-11-05T15:05:42.386Z,11.43
2022-11-05T15:10:48.518Z,11.22
2022-11-05T15:15:56.442Z,11.13
2022-11-05T15:21:04.918Z,11.10
2022-11-05T15:26:17.739Z,10.96
2022-11-05T15:31:34.228Z,10.61
2022-11-05T15:36:39.049Z,10.75
2022-11-05T15:41:43.909Z,10.18
2022-11-05T15:46:51.273Z,10.09
2022-11-05T15:51:57.479Z,9.66
2022-11-05T15:57:05.191Z,9.77
2022-11-05T16:02:28.873Z,10.00
2022-11-05T16:07:36.254Z,9.82
2022-11-05T16:12:44.435Z,9.70
2022-11-05T16:17:54.635Z,9.52
2022-11-05T16:23:01.065Z,9.66
2022-11-05T16:28:07.581Z,9.01
2022-11-05T16:33:18.470Z,8.97
2022-11-05T16:38:23.826Z,8.66
2022-11-05T16:43:29.976Z,8.41
2022-11-05T16:48:37.383Z,8.41
2022-11-05T16:53:42.159Z,8.35
2022-11-05T16:58:48.794Z,8.17
2022-11-05T17:03:57.229Z,8.15
2022-11-05T17:09:01.951Z,7.95
2022-11-05T17:14:07.129Z,8.11
2022-11-05T17:19:18.195Z,8.15
2022-11-05T17:24:23.068Z,8.02
2022-11-05T17:29:27.949Z,7.69
2022-11-05T17:34:35.978Z,7.62
2022-11-05T17:39:40.790Z,7.64
2022-11-05T17:44:46.148Z,7.57
2022-11-05T17:49:54.869Z,7.56
2022-11-05T17:55:00.050Z,7.28
2022-11-05T18:00:07.235Z,7.21
2022-11-05T18:05:22.044Z,7.28
2022-11-05T18:10:28.207Z,7.05
2022-11-05T18:15:41.174Z,6.97
2022-11-05T18:20:49.866Z,6.79
2022-11-05T18:25:56.583Z,6.56
2022-11-05T18:31:01.800Z,6.65
2022-11-05T18:36:10.890Z,6.57
2022-11-05T18:41:22.344Z,6.38
2022-11-05T18:46:55.800Z,6.31
2022-11-05T18:51:56.232Z,6.42
2022-11-05T18:57:01.187Z,6.42
2022-11-05T19:02:06.262Z,6.26
2022-11-05T19:07:16.112Z,6.10
2022-11-05T19:12:20.921Z,5.98
2022-11-05T19:17:27.386Z,5.95
2022-11-05T19:22:35.397Z,5.98
2022-11-05T19:27:41.228Z,5.70
2022-11-05T19:32:48.256Z,5.75
2022-11-05T19:37:56.209Z,5.55
2022-11-05T19:43:01.377Z,5.48
2022-11-05T19:48:12.428Z,5.49
2022-11-05T19:53:22.688Z,5.45
2022-11-05T19:58:27.773Z,5.46
2022-11-05T20:03:32.953Z,5.31
2022-11-05T20:08:59.711Z,4.98
2022-11-05T20:14:06.581Z,4.93
2022-11-05T20:19:13.849Z,4.90
2022-11-05T20:24:25.728Z,4.94
2022-11-05T20:29:35.264Z,5.01
2022-11-05T20:34:40.811Z,4.89
2022-11-05T20:39:48.457Z,4.85
2022-11-05T20:44:55.532Z,4.90
2022-11-05T20:50:06.163Z,5.00
2022-11-05T20:55:21.994Z,5.03
2022-11-05T21:00:28.448Z,4.89
2022-11-05T21:05:37.471Z,4.89
2022-11-05T21:10:51.038Z,4.76
2022-11-05T21:16:00.208Z,4.63
2022-11-05T21:21:09.038Z,4.49
2022-11-05T21:26:19.700Z,4.56
2022-11-05T21:31:25.070Z,4.57
2022-11-05T21:36:33.346Z,4.35
2022-11-05T21:41:42.814Z,4.27
2022-11-05T21:46:47.718Z,4.30
2022-11-05T21:52:04.934Z,4.42
2022-11-05T21:57:30.057Z,4.57
2022-11-05T22:02:35.296Z,4.49
2022-11-05T22:07:41.902Z,4.47
2022-11-05T22:12:49.658Z,4.40
2022-11-05T22:17:54.704Z,4.40
2022-11-05T22:22:59.557Z,4.44
2022-11-05T22:28:07.480Z,4.10
2022-11-05T22:33:12.425Z,3.93
2022-11-05T22:38:17.268Z,3.92
2022-11-05T22:43:24.854Z,3.98
2022-11-05T22:48:29.638Z,4.03
2022-11-05T22:53:34.555Z,3.96
2022-11-05T22:58:42.371Z,3.61
2022-11-05T23:03:49.222Z,3.73
2022-11-05T23:09:06.445Z,3.61
2022-11-05T23:14:16.271Z,3.72
2022-11-05T23:19:41.291Z,3.84
2022-11-05T23:24:46.136Z,3.78
2022-11-05T23:29:53.604Z,3.83
2022-11-05T23:34:59.632Z,3.89
2022-11-05T23:40:04.437Z,3.62
2022-11-05T23:45:25.999Z,3.46
2022-11-05T23:50:38.520Z,3.27
2022-11-05T23:55:47.207Z,3.49
